createdAt,value
2022-10-30T00:00:20.194Z,969.58
2022-10-30T00:01:20.269Z,969.58
2022-10-30T00:02:20.261Z,969.57
2022-10-30T00:03:20.111Z,969.55
2022-10-30T00:04:20.017Z,969.53
2022-10-30T00:05:19.976Z,969.54
2022-10-30T00:06:19.962Z,969.50
2022-10-30T00:07:19.890Z,969.55
2022-10-30T00:08:19.844Z,969.53
2022-10-30T00:09:19.802Z,969.54
2022-10-30T00:10:19.761Z,969.54
2022-10-30T00:11:19.917Z,969.55
2022-10-30T00:12:19.669Z,969.54
2022-10-30T00:13:19.626Z,969.53
2022-10-30T00:14:19.576Z,969.54
2022-10-30T00:15:19.533Z,969.54
2022-10-30T00:16:19.492Z,969.52
2022-10-30T00:17:19.475Z,969.55
2022-10-30T00:18:19.407Z,969.53
2022-10-30T00:19:19.361Z,969.52
2022-10-30T00:20:19.315Z,969.52
2022-10-30T00:21:19.301Z,969.53
2022-10-30T00:22:19.230Z,969.49
2022-10-30T00:23:19.190Z,969.49
2022-10-30T00:24:19.139Z,969.47
2022-10-30T00:25:19.095Z,969.49
2022-10-30T00:26:19.055Z,969.41
2022-10-30T00:27:19.033Z,969.42
2022-10-30T00:28:18.965Z,969.40
2022-10-30T00:29:18.922Z,969.39
2022-10-30T00:30:18.888Z,969.35
2022-10-30T00:31:18.830Z,969.37
2022-10-30T00:32:18.789Z,969.39
2022-10-30T00:33:18.779Z,969.34
2022-10-30T00:34:18.705Z,969.32
2022-10-30T00:35:18.655Z,969.39
2022-10-30T00:36:18.615Z,969.38
2022-10-30T00:37:18.573Z,969.35
2022-10-30T00:38:18.525Z,969.34
2022-10-30T00:39:18.506Z,969.32
2022-10-30T00:40:18.437Z,969.32
2022-10-30T00:41:18.392Z,969.32
2022-10-30T00:42:18.350Z,969.29
2022-10-30T00:43:18.304Z,969.31
2022-10-30T00:44:18.258Z,969.31
2022-10-30T00:45:18.255Z,969.28
2022-10-30T00:46:18.174Z,969.30
2022-10-30T00:47:18.139Z,969.31
2022-10-30T00:48:18.083Z,969.26
2022-10-30T00:49:18.044Z,969.23
2022-10-30T00:50:18.071Z,969.25
2022-10-30T00:51:17.976Z,969.23
2022-10-30T00:52:17.914Z,969.21
2022-10-30T00:53:17.864Z,969.21
2022-10-30T00:54:17.821Z,969.23
2022-10-30T00:55:17.777Z,969.20
2022-10-30T00:56:17.728Z,969.20
2022-10-30T00:57:17.717Z,969.15
2022-10-30T00:58:17.643Z,969.17
2022-10-30T00:59:17.612Z,969.13
2022-10-30T01:00:17.573Z,969.16
2022-10-30T01:01:17.669Z,969.16
2022-10-30T01:02:17.585Z,969.16
2022-10-30T01:03:17.428Z,969.17
2022-10-30T01:04:17.381Z,969.13
2022-10-30T01:05:17.355Z,969.20
2022-10-30T01:06:17.316Z,969.20
2022-10-30T01:07:17.256Z,969.18
2022-10-30T01:08:17.224Z,969.18
2022-10-30T01:09:17.253Z,969.17
2022-10-30T01:10:17.114Z,969.17
2022-10-30T01:11:17.082Z,969.19
2022-10-30T01:12:17.056Z,969.18
2022-10-30T01:13:16.985Z,969.14
2022-10-30T01:14:16.940Z,969.18
2022-10-30T01:15:16.898Z,969.13
2022-10-30T01:16:16.857Z,969.14
2022-10-30T01:17:16.817Z,969.15
2022-10-30T01:18:16.784Z,969.15
2022-10-30T01:19:16.726Z,969.18
2022-10-30T01:20:16.679Z,969.17
2022-10-30T01:21:16.638Z,969.11
2022-10-30T01:22:16.590Z,969.11
2022-10-30T01:23:16.555Z,969.11
2022-10-30T01:24:16.535Z,969.13
2022-10-30T01:25:16.458Z,969.12
2022-10-30T01:26:16.416Z,969.12
2022-10-30T01:27:16.399Z,969.08
2022-10-30T01:28:16.328Z,969.04
2022-10-30T01:29:16.281Z,969.03
2022-10-30T01:30:16.241Z,969.05
2022-10-30T01:31:16.236Z,969.03
2022-10-30T01:32:16.153Z,969.05
2022-10-30T01:33:16.130Z,969.06
2022-10-30T01:34:16.061Z,969.04
2022-10-30T01:35:16.049Z,969.05
2022-10-30T01:36:15.974Z,969.09
2022-10-30T01:37:15.933Z,969.11
2022-10-30T01:38:15.909Z,969.11
2022-10-30T01:39:15.847Z,969.09
2022-10-30T01:40:15.799Z,969.08
2022-10-30T01:41:15.763Z,969.09
2022-10-30T01:42:15.713Z,969.09
2022-10-30T01:43:15.669Z,969.06
2022-10-30T01:44:15.645Z,969.06
2022-10-30T01:45:15.588Z,969.08
2022-10-30T01:46:15.540Z,969.06
2022-10-30T01:47:15.497Z,969.09
2022-10-30T01:48:15.449Z,969.08
2022-10-30T01:49:15.521Z,969.06
2022-10-30T01:50:15.388Z,969.07
2022-10-30T01:51:15.317Z,969.09
2022-10-30T01:52:15.277Z,969.08
2022-10-30T01:53:15.230Z,969.06
2022-10-30T01:54:15.190Z,969.08
2022-10-30T01:55:15.181Z,969.06
2022-10-30T01:56:15.123Z,969.02
2022-10-30T01:57:15.056Z,969.04
2022-10-30T01:58:15.010Z,969.02
2022-10-30T01:59:14.961Z,969.01
2022-10-30T02:00:14.924Z,968.98
2022-10-30T02:01:14.949Z,969.02
2022-10-30T02:02:14.983Z,969.00
2022-10-30T02:03:14.792Z,969.05
2022-10-30T02:04:14.748Z,969.00
2022-10-30T02:05:14.700Z,969.01
2022-10-30T02:06:14.660Z,969.02
2022-10-30T02:07:14.617Z,969.05
2022-10-30T02:08:14.591Z,969.02
2022-10-30T02:09:14.523Z,969.02
2022-10-30T02:10:14.483Z,969.02
2022-10-30T02:11:14.441Z,969.05
2022-10-30T02:12:14.400Z,969.05
2022-10-30T02:13:14.353Z,969.04
2022-10-30T02:14:14.321Z,969.02
2022-10-30T02:15:14.291Z,969.03
2022-10-30T02:16:14.217Z,969.05
2022-10-30T02:17:14.175Z,969.03
2022-10-30T02:18:14.129Z,969.01
2022-10-30T02:19:14.084Z,968.98
2022-10-30T02:20:14.040Z,969.00
2022-10-30T02:21:14.018Z,968.99
2022-10-30T02:22:14.056Z,968.95
2022-10-30T02:23:13.999Z,968.94
2022-10-30T02:24:13.867Z,968.95
2022-10-30T02:25:13.820Z,968.94
2022-10-30T02:26:13.775Z,968.94
2022-10-30T02:27:13.756Z,968.93
2022-10-30T02:28:13.692Z,968.95
2022-10-30T02:29:13.645Z,968.94
2022-10-30T02:30:13.601Z,968.90
2022-10-30T02:31:13.586Z,968.88
2022-10-30T02:32:13.516Z,968.88
2022-10-30T02:33:13.571Z,968.88
2022-10-30T02:34:13.423Z,968.89
2022-10-30T02:35:13.385Z,968.86
2022-10-30T02:36:13.334Z,968.84
2022-10-30T02:37:13.328Z,968.86
2022-10-30T02:38:13.250Z,968.84
2022-10-30T02:39:13.229Z,968.83
2022-10-30T02:40:13.159Z,968.82
2022-10-30T02:41:13.123Z,968.85
2022-10-30T02:42:13.073Z,968.82
2022-10-30T02:43:13.076Z,968.85
2022-10-30T02:44:12.982Z,968.84
2022-10-30T02:45:12.939Z,968.85
2022-10-30T02:46:12.898Z,968.83
2022-10-30T02:47:12.852Z,968.81
2022-10-30T02:48:12.814Z,968.81
2022-10-30T02:49:12.935Z,968.80
2022-10-30T02:50:12.720Z,968.79
2022-10-30T02:51:12.677Z,968.76
2022-10-30T02:52:12.635Z,968.77
2022-10-30T02:53:12.588Z,968.79
2022-10-30T02:54:12.553Z,968.78
2022-10-30T02:55:12.533Z,968.80
2022-10-30T02:56:12.451Z,968.79
2022-10-30T02:57:12.413Z,968.79
2022-10-30T02:58:12.374Z,968.79
2022-10-30T02:59:12.328Z,968.82
2022-10-30T03:00:12.282Z,968.80
2022-10-30T03:01:12.300Z,968.80
2022-10-30T03:02:12.237Z,968.79
2022-10-30T03:03:12.156Z,968.78
2022-10-30T03:04:12.106Z,968.85
2022-10-30T03:05:12.062Z,968.80
2022-10-30T03:06:12.113Z,968.80
2022-10-30T03:07:12.004Z,968.78
2022-10-30T03:08:11.928Z,968.78
2022-10-30T03:09:11.886Z,968.79
2022-10-30T03:10:11.841Z,968.78
2022-10-30T03:11:11.791Z,968.79
2022-10-30T03:12:11.852Z,968.77
2022-10-30T03:13:11.734Z,968.78
2022-10-30T03:14:11.663Z,968.75
2022-10-30T03:15:11.618Z,968.71
2022-10-30T03:16:11.579Z,968.76
2022-10-30T03:17:11.534Z,968.75
2022-10-30T03:18:11.592Z,968.73
2022-10-30T03:19:11.496Z,968.69
2022-10-30T03:20:11.400Z,968.70
2022-10-30T03:21:11.360Z,968.68
2022-10-30T03:22:11.313Z,968.68
2022-10-30T03:23:11.267Z,968.71
2022-10-30T03:24:11.321Z,968.71
2022-10-30T03:25:11.208Z,968.69
2022-10-30T03:26:11.136Z,968.71
2022-10-30T03:27:11.096Z,968.73
2022-10-30T03:28:11.043Z,968.71
2022-10-30T03:29:11.003Z,968.70
2022-10-30T03:30:11.061Z,968.68
2022-10-30T03:31:11.090Z,968.70
2022-10-30T03:32:10.945Z,968.70
2022-10-30T03:33:10.826Z,968.71
2022-10-30T03:34:10.783Z,968.69
2022-10-30T03:35:10.738Z,968.70
2022-10-30T03:36:10.697Z,968.72
2022-10-30T03:37:10.692Z,968.69
2022-10-30T03:38:10.603Z,968.71
2022-10-30T03:39:10.561Z,968.73
2022-10-30T03:40:10.517Z,968.72
2022-10-30T03:41:10.469Z,968.72
2022-10-30T03:42:10.429Z,968.70
2022-10-30T03:43:10.428Z,968.72
2022-10-30T03:44:10.338Z,968.76
2022-10-30T03:45:10.297Z,968.81
2022-10-30T03:46:10.251Z,968.76
2022-10-30T03:48:10.173Z,968.76
2022-10-30T03:49:10.145Z,968.76
2022-10-30T03:50:10.071Z,968.81
2022-10-30T03:51:10.039Z,968.80
2022-10-30T03:52:09.982Z,968.80
2022-10-30T03:53:09.936Z,968.81
2022-10-30T03:54:09.897Z,968.79
2022-10-30T03:55:09.879Z,968.78
2022-10-30T03:56:09.808Z,968.77
2022-10-30T03:57:09.760Z,968.79
2022-10-30T03:58:09.716Z,968.72
2022-10-30T03:59:09.670Z,968.79
2022-10-30T04:00:09.628Z,968.79
2022-10-30T04:01:09.626Z,968.80
2022-10-30T04:02:09.733Z,968.79
2022-10-30T04:03:09.498Z,968.81
2022-10-30T04:04:09.489Z,968.82
2022-10-30T04:05:09.408Z,968.81
2022-10-30T04:06:09.367Z,968.84
2022-10-30T04:07:09.321Z,968.83
2022-10-30T04:08:09.279Z,968.84
2022-10-30T04:09:09.228Z,968.82
2022-10-30T04:10:09.217Z,968.81
2022-10-30T04:11:09.178Z,968.83
2022-10-30T04:12:09.112Z,968.77
2022-10-30T04:13:09.053Z,968.82
2022-10-30T04:14:09.007Z,968.80
2022-10-30T04:15:08.967Z,968.80
2022-10-30T04:16:08.975Z,968.83
2022-10-30T04:18:08.846Z,968.80
2022-10-30T04:19:08.787Z,968.80
2022-10-30T04:20:08.742Z,968.79
2022-10-30T04:21:08.699Z,968.77
2022-10-30T04:22:08.691Z,968.76
2022-10-30T04:23:08.609Z,968.77
2022-10-30T04:24:08.568Z,968.73
2022-10-30T04:25:08.518Z,968.73
2022-10-30T04:26:08.476Z,968.77
2022-10-30T04:27:08.432Z,968.81
2022-10-30T04:28:08.412Z,968.81
2022-10-30T04:29:08.348Z,968.85
2022-10-30T04:30:08.316Z,968.82
2022-10-30T04:31:08.251Z,968.81
2022-10-30T04:32:08.228Z,968.82
2022-10-30T04:33:08.164Z,968.83
2022-10-30T04:34:08.121Z,968.86
2022-10-30T04:35:08.077Z,968.84
2022-10-30T04:36:08.056Z,968.86
2022-10-30T04:37:07.994Z,968.86
2022-10-30T04:38:07.948Z,968.88
2022-10-30T04:39:07.900Z,968.86
2022-10-30T04:40:07.854Z,968.91
2022-10-30T04:41:07.810Z,968.85
2022-10-30T04:42:07.796Z,968.85
2022-10-30T04:43:07.720Z,968.83
2022-10-30T04:44:07.681Z,968.82
2022-10-30T04:45:12.517Z,968.81
2022-10-30T04:46:07.588Z,968.83
2022-10-30T04:47:07.625Z,968.83
2022-10-30T04:48:07.521Z,968.87
2022-10-30T04:49:07.455Z,968.89
2022-10-30T04:50:07.413Z,968.86
2022-10-30T04:51:07.368Z,968.87
2022-10-30T04:52:07.322Z,968.83
2022-10-30T04:53:07.281Z,968.88
2022-10-30T04:54:07.357Z,968.86
2022-10-30T04:55:07.190Z,968.89
2022-10-30T04:56:07.145Z,968.85
2022-10-30T04:57:07.102Z,968.85
2022-10-30T04:58:07.061Z,968.86
2022-10-30T04:59:07.100Z,968.86
2022-10-30T05:00:06.997Z,968.91
2022-10-30T05:01:06.992Z,968.85
2022-10-30T05:02:07.026Z,968.86
2022-10-30T05:03:06.838Z,968.85
2022-10-30T05:04:06.964Z,968.84
2022-10-30T05:05:06.749Z,968.79
2022-10-30T05:06:06.704Z,968.82
2022-10-30T05:07:06.660Z,968.83
2022-10-30T05:08:06.614Z,968.84
2022-10-30T05:09:06.569Z,968.84
2022-10-30T05:10:06.548Z,968.85
2022-10-30T05:11:06.480Z,968.87
2022-10-30T05:12:06.446Z,968.87
2022-10-30T05:13:06.408Z,968.84
2022-10-30T05:14:06.352Z,968.83
2022-10-30T05:15:06.300Z,968.80
2022-10-30T05:16:06.259Z,968.77
2022-10-30T05:17:06.221Z,968.78
2022-10-30T05:18:06.167Z,968.74
2022-10-30T05:19:06.166Z,968.76
2022-10-30T05:20:06.082Z,968.75
2022-10-30T05:21:06.036Z,968.70
2022-10-30T05:22:05.989Z,968.70
2022-10-30T05:23:05.952Z,968.68
2022-10-30T05:24:05.901Z,968.70
2022-10-30T05:25:05.887Z,968.69
2022-10-30T05:26:05.809Z,968.68
2022-10-30T05:27:05.769Z,968.70
2022-10-30T05:28:05.727Z,968.66
2022-10-30T05:29:05.680Z,968.67
2022-10-30T05:30:05.637Z,968.65
2022-10-30T05:31:05.609Z,968.63
2022-10-30T05:32:05.584Z,968.63
2022-10-30T05:33:05.511Z,968.65
2022-10-30T05:34:07.390Z,968.61
2022-10-30T05:35:05.415Z,968.65
2022-10-30T05:36:05.378Z,968.66
2022-10-30T05:37:05.347Z,968.65
2022-10-30T05:38:05.278Z,968.64
2022-10-30T05:39:05.240Z,968.63
2022-10-30T05:40:05.203Z,968.66
2022-10-30T05:41:05.143Z,968.62
2022-10-30T05:42:06.632Z,968.62
2022-10-30T05:43:05.081Z,968.63
2022-10-30T05:44:05.016Z,968.62
2022-10-30T05:45:04.973Z,968.63
2022-10-30T05:46:04.923Z,968.63
2022-10-30T05:47:04.882Z,968.59
2022-10-30T05:48:04.863Z,968.62
2022-10-30T05:49:04.794Z,968.60
2022-10-30T05:50:04.743Z,968.59
2022-10-30T05:51:04.705Z,968.59
2022-10-30T05:52:04.658Z,968.58
2022-10-30T05:53:04.615Z,968.59
2022-10-30T05:54:04.596Z,968.57
2022-10-30T05:55:04.520Z,968.59
2022-10-30T05:56:04.510Z,968.53
2022-10-30T05:57:04.434Z,968.56
2022-10-30T05:58:04.388Z,968.58
2022-10-30T05:59:04.349Z,968.61
2022-10-30T06:03:47.054Z,968.65
2022-10-30T06:04:46.990Z,968.64
2022-10-30T06:05:46.930Z,968.60
2022-10-30T06:06:46.890Z,968.60
2022-10-30T06:07:46.843Z,968.66
2022-10-30T06:08:46.803Z,968.62
2022-10-30T06:09:46.943Z,968.66
2022-10-30T06:10:46.710Z,968.67
2022-10-30T06:11:46.661Z,968.67
2022-10-30T06:12:46.620Z,968.66
2022-10-30T06:13:46.568Z,968.70
2022-10-30T06:14:46.527Z,968.64
2022-10-30T06:15:46.503Z,968.65
2022-10-30T06:16:46.435Z,968.67
2022-10-30T06:17:46.389Z,968.65
2022-10-30T06:18:46.351Z,968.70
2022-10-30T06:19:46.304Z,968.64
2022-10-30T06:20:46.258Z,968.62
2022-10-30T06:21:46.230Z,968.63
2022-10-30T06:22:46.169Z,968.64
2022-10-30T06:23:46.118Z,968.69
2022-10-30T06:24:46.080Z,968.70
2022-10-30T06:25:46.029Z,968.71
2022-10-30T06:26:45.988Z,968.72
2022-10-30T06:27:45.961Z,968.68
2022-10-30T06:28:45.905Z,968.69
2022-10-30T06:29:45.850Z,968.66
2022-10-30T06:30:45.809Z,968.67
2022-10-30T06:31:45.764Z,968.68
2022-10-30T06:32:45.722Z,968.69
2022-10-30T06:33:45.685Z,968.70
2022-10-30T06:34:45.629Z,968.71
2022-10-30T06:35:45.585Z,968.71
2022-10-30T06:36:45.581Z,968.71
2022-10-30T06:37:45.500Z,968.73
2022-10-30T06:38:45.454Z,968.71
2022-10-30T06:39:45.437Z,968.70
2022-10-30T06:40:45.360Z,968.71
2022-10-30T06:41:45.322Z,968.70
2022-10-30T06:42:45.272Z,968.66
2022-10-30T06:43:45.239Z,968.72
2022-10-30T06:44:45.183Z,968.73
2022-10-30T06:45:45.170Z,968.77
2022-10-30T06:46:45.120Z,968.77
2022-10-30T06:47:45.069Z,968.78
2022-10-30T06:48:45.011Z,968.82
2022-10-30T06:49:44.965Z,968.84
2022-10-30T06:50:44.918Z,968.81
2022-10-30T06:51:44.874Z,968.82
2022-10-30T06:52:44.830Z,968.85
2022-10-30T06:53:44.805Z,968.80
2022-10-30T06:54:44.739Z,968.81
2022-10-30T06:55:44.694Z,968.82
2022-10-30T06:56:44.651Z,968.84
2022-10-30T06:57:44.608Z,968.87
2022-10-30T06:58:44.564Z,968.88
2022-10-30T06:59:44.539Z,968.89
2022-10-30T07:00:44.509Z,968.87
2022-10-30T07:01:44.525Z,968.85
2022-10-30T07:02:44.411Z,968.92
2022-10-30T07:03:44.470Z,968.90
2022-10-30T07:04:44.295Z,968.92
2022-10-30T07:05:44.255Z,968.86
2022-10-30T07:06:44.210Z,968.90
2022-10-30T07:07:44.249Z,968.91
2022-10-30T07:08:44.117Z,968.94
2022-10-30T07:09:44.082Z,968.92
2022-10-30T07:10:44.034Z,968.97
2022-10-30T07:11:43.988Z,968.98
2022-10-30T07:12:43.942Z,968.95
2022-10-30T07:13:43.924Z,968.98
2022-10-30T07:14:43.854Z,968.99
2022-10-30T07:15:44.014Z,969.00
2022-10-30T07:16:43.768Z,968.99
2022-10-30T07:17:43.778Z,969.01
2022-10-30T07:18:43.701Z,968.99
2022-10-30T07:19:43.700Z,969.01
2022-10-30T07:20:43.592Z,969.02
2022-10-30T07:21:43.552Z,969.04
2022-10-30T07:22:43.506Z,969.05
2022-10-30T07:23:43.466Z,969.05
2022-10-30T07:24:43.419Z,969.09
2022-10-30T07:25:43.401Z,969.09
2022-10-30T07:26:43.334Z,969.07
2022-10-30T07:27:43.285Z,969.07
2022-10-30T07:28:43.288Z,969.14
2022-10-30T07:29:43.199Z,969.07
2022-10-30T07:30:43.154Z,969.14
2022-10-30T07:31:57.614Z,969.13
2022-10-30T07:32:43.068Z,969.13
2022-10-30T07:33:43.021Z,969.12
2022-10-30T07:34:43.012Z,969.13
2022-10-30T07:35:42.937Z,969.11
2022-10-30T07:36:42.937Z,969.13
2022-10-30T07:37:42.852Z,969.14
2022-10-30T07:38:42.809Z,969.13
2022-10-30T07:39:42.762Z,969.17
2022-10-30T07:40:42.729Z,969.16
2022-10-30T07:41:47.338Z,969.17
2022-10-30T07:42:42.665Z,969.18
2022-10-30T07:43:42.618Z,969.21
2022-10-30T07:44:42.548Z,969.24
2022-10-30T07:45:42.506Z,969.21
2022-10-30T07:46:42.494Z,969.27
2022-10-30T07:47:42.415Z,969.21
2022-10-30T07:48:42.372Z,969.21
2022-10-30T07:49:42.330Z,969.22
2022-10-30T07:50:42.287Z,969.23
2022-10-30T07:51:42.281Z,969.25
2022-10-30T07:52:42.202Z,969.24
2022-10-30T07:53:42.157Z,969.25
2022-10-30T07:54:42.113Z,969.21
2022-10-30T07:55:42.074Z,969.20
2022-10-30T07:56:42.028Z,969.21
2022-10-30T07:57:42.013Z,969.25
2022-10-30T07:58:45.492Z,969.23
2022-10-30T07:59:41.927Z,969.26
2022-10-30T08:00:41.853Z,969.27
2022-10-30T08:01:41.943Z,969.26
2022-10-30T08:02:41.913Z,969.27
2022-10-30T08:03:41.726Z,969.26
2022-10-30T08:04:41.709Z,969.31
2022-10-30T08:05:41.640Z,969.32
2022-10-30T08:06:41.597Z,969.25
2022-10-30T08:07:41.562Z,969.26
2022-10-30T08:08:43.372Z,969.29
2022-10-30T08:09:41.466Z,969.23
2022-10-30T08:10:41.456Z,969.29
2022-10-30T08:11:41.386Z,969.29
2022-10-30T08:12:41.342Z,969.32
2022-10-30T08:13:41.301Z,969.27
2022-10-30T08:14:41.388Z,969.34
2022-10-30T08:15:41.237Z,969.30
2022-10-30T08:16:41.170Z,969.30
2022-10-30T08:17:41.128Z,969.30
2022-10-30T08:18:41.083Z,969.32
2022-10-30T08:19:41.070Z,969.32
2022-10-30T08:20:41.030Z,969.34
2022-10-30T08:21:40.958Z,969.31
2022-10-30T08:22:40.916Z,969.36
2022-10-30T08:23:40.877Z,969.34
2022-10-30T08:24:40.834Z,969.32
2022-10-30T08:25:40.807Z,969.30
2022-10-30T08:26:40.746Z,969.31
2022-10-30T08:27:40.707Z,969.27
2022-10-30T08:28:40.658Z,969.27
2022-10-30T08:29:40.621Z,969.29
2022-10-30T08:30:40.575Z,969.31
2022-10-30T08:31:40.735Z,969.26
2022-10-30T08:32:40.506Z,969.27
2022-10-30T08:33:40.454Z,969.29
2022-10-30T08:34:40.408Z,969.28
2022-10-30T08:35:40.379Z,969.28
2022-10-30T08:36:42.681Z,969.30
2022-10-30T08:37:40.300Z,969.29
2022-10-30T08:38:40.231Z,969.28
2022-10-30T08:39:40.194Z,969.25
2022-10-30T08:40:40.156Z,969.28
2022-10-30T08:41:40.117Z,969.30
2022-10-30T08:42:40.076Z,969.26
2022-10-30T08:43:40.059Z,969.23
2022-10-30T08:44:39.987Z,969.26
2022-10-30T08:45:39.947Z,969.28
2022-10-30T08:46:39.904Z,969.29
2022-10-30T08:47:39.860Z,969.32
2022-10-30T08:48:39.820Z,969.33
2022-10-30T08:49:39.819Z,969.30
2022-10-30T08:50:39.740Z,969.30
2022-10-30T08:51:39.704Z,969.29
2022-10-30T08:52:39.657Z,969.26
2022-10-30T08:53:39.612Z,969.31
2022-10-30T08:54:39.572Z,969.31
2022-10-30T08:55:39.552Z,969.27
2022-10-30T08:56:39.515Z,969.30
2022-10-30T08:57:39.448Z,969.28
2022-10-30T08:58:39.430Z,969.31
2022-10-30T08:59:39.363Z,969.30
2022-10-30T09:00:39.321Z,969.32
2022-10-30T09:01:39.361Z,969.33
2022-10-30T09:02:39.356Z,969.29
2022-10-30T09:03:39.199Z,969.29
2022-10-30T09:04:39.171Z,969.30
2022-10-30T09:05:39.115Z,969.29
2022-10-30T09:06:39.077Z,969.34
2022-10-30T09:07:39.034Z,969.31
2022-10-30T09:08:38.993Z,969.34
2022-10-30T09:09:38.978Z,969.35
2022-10-30T09:10:38.912Z,969.35
2022-10-30T09:11:38.869Z,969.36
2022-10-30T09:12:38.826Z,969.35
2022-10-30T09:13:38.787Z,969.40
2022-10-30T09:14:38.751Z,969.41
2022-10-30T09:15:38.730Z,969.39
2022-10-30T09:16:38.667Z,969.46
2022-10-30T09:17:38.626Z,969.46
2022-10-30T09:18:38.590Z,969.46
2022-10-30T09:19:38.598Z,969.40
2022-10-30T09:20:38.533Z,969.45
2022-10-30T09:21:38.469Z,969.42
2022-10-30T09:22:38.428Z,969.40
2022-10-30T09:23:38.398Z,969.43
2022-10-30T09:24:38.353Z,969.43
2022-10-30T09:25:38.323Z,969.39
2022-10-30T09:26:38.312Z,969.44
2022-10-30T09:27:38.242Z,969.39
2022-10-30T09:28:38.210Z,969.40
2022-10-30T09:29:38.167Z,969.40
2022-10-30T09:30:38.130Z,969.41
2022-10-30T09:31:38.093Z,969.42
2022-10-30T09:32:38.075Z,969.45
2022-10-30T09:33:38.019Z,969.44
2022-10-30T09:34:37.984Z,969.51
2022-10-30T09:35:37.950Z,969.49
2022-10-30T09:36:37.922Z,969.51
2022-10-30T09:37:37.891Z,969.48
2022-10-30T09:38:37.860Z,969.53
2022-10-30T09:39:37.804Z,969.53
2022-10-30T09:40:37.768Z,969.56
2022-10-30T09:41:37.736Z,969.54
2022-10-30T09:42:37.703Z,969.51
2022-10-30T09:43:37.656Z,969.51
2022-10-30T09:44:37.791Z,969.50
2022-10-30T09:45:37.586Z,969.49
2022-10-30T09:46:37.551Z,969.52
2022-10-30T09:47:37.510Z,969.51
2022-10-30T09:48:37.492Z,969.50
2022-10-30T09:49:37.446Z,969.49
2022-10-30T09:50:39.741Z,969.53
2022-10-30T09:51:37.372Z,969.52
2022-10-30T09:52:37.341Z,969.54
2022-10-30T09:53:37.332Z,969.53
2022-10-30T09:54:37.270Z,969.53
2022-10-30T09:55:37.232Z,969.52
2022-10-30T09:56:37.201Z,969.53
2022-10-30T09:57:37.214Z,969.52
2022-10-30T09:58:37.128Z,969.52
2022-10-30T09:59:37.097Z,969.50
2022-10-30T10:00:37.062Z,969.51
2022-10-30T10:01:37.098Z,969.53
2022-10-30T10:02:37.129Z,969.52
2022-10-30T10:03:37.015Z,969.49
2022-10-30T10:04:36.929Z,969.46
2022-10-30T10:05:36.892Z,969.48
2022-10-30T10:06:36.862Z,969.48
2022-10-30T10:07:36.853Z,969.48
2022-10-30T10:08:36.797Z,969.48
2022-10-30T10:09:36.795Z,969.52
2022-10-30T10:10:36.731Z,969.52
2022-10-30T10:11:36.701Z,969.51
2022-10-30T10:12:36.667Z,969.50
2022-10-30T10:13:36.655Z,969.50
2022-10-30T10:14:36.629Z,969.46
2022-10-30T10:15:36.569Z,969.52
2022-10-30T10:16:36.559Z,969.49
2022-10-30T10:17:36.504Z,969.49
2022-10-30T10:18:36.473Z,969.53
2022-10-30T10:19:36.431Z,969.50
2022-10-30T10:20:36.422Z,969.45
2022-10-30T10:21:36.371Z,969.48
2022-10-30T10:22:36.338Z,969.49
2022-10-30T10:23:36.299Z,969.44
2022-10-30T10:24:36.268Z,969.45
2022-10-30T10:25:36.234Z,969.43
2022-10-30T10:26:36.299Z,969.45
2022-10-30T10:27:36.169Z,969.44
2022-10-30T10:28:36.875Z,969.44
2022-10-30T10:29:36.102Z,969.42
2022-10-30T10:30:36.129Z,969.44
2022-10-30T10:31:36.039Z,969.41
2022-10-30T10:32:36.040Z,969.39
2022-10-30T10:33:35.966Z,969.39
2022-10-30T10:34:35.934Z,969.40
2022-10-30T10:35:35.900Z,969.37
2022-10-30T10:36:35.968Z,969.41
2022-10-30T10:37:35.850Z,969.39
2022-10-30T10:38:35.806Z,969.38
2022-10-30T10:39:35.775Z,969.39
2022-10-30T10:40:35.734Z,969.38
2022-10-30T10:41:35.707Z,969.36
2022-10-30T10:42:35.666Z,969.35
2022-10-30T10:43:35.699Z,969.31
2022-10-30T10:44:35.601Z,969.33
2022-10-30T10:45:35.569Z,969.38
2022-10-30T10:46:35.536Z,969.41
2022-10-30T10:47:35.500Z,969.40
2022-10-30T10:48:35.484Z,969.40
2022-10-30T10:49:39.014Z,969.44
2022-10-30T10:50:35.400Z,969.41
2022-10-30T10:51:35.367Z,969.42
2022-10-30T10:52:35.330Z,969.41
2022-10-30T10:53:35.297Z,969.42
2022-10-30T10:54:35.265Z,969.41
2022-10-30T10:55:35.268Z,969.42
2022-10-30T10:56:35.197Z,969.37
2022-10-30T10:57:35.169Z,969.34
2022-10-30T10:58:35.132Z,969.33
2022-10-30T10:59:35.098Z,969.29
2022-10-30T11:00:35.065Z,969.28
2022-10-30T11:01:35.194Z,969.27
2022-10-30T11:02:35.050Z,969.27
2022-10-30T11:03:34.956Z,969.26
2022-10-30T11:04:34.924Z,969.26
2022-10-30T11:05:34.906Z,969.24
2022-10-30T11:06:34.856Z,969.26
2022-10-30T11:07:34.819Z,969.23
2022-10-30T11:08:34.817Z,969.19
2022-10-30T11:09:34.752Z,969.23
2022-10-30T11:10:34.719Z,969.22
2022-10-30T11:11:34.684Z,969.24
2022-10-30T11:12:36.363Z,969.19
2022-10-30T11:13:34.617Z,969.16
2022-10-30T11:14:34.603Z,969.14
2022-10-30T11:15:34.547Z,969.15
2022-10-30T11:16:34.516Z,969.14
2022-10-30T11:17:34.481Z,969.13
2022-10-30T11:18:34.448Z,969.14
2022-10-30T11:19:34.407Z,969.12
2022-10-30T11:20:34.403Z,969.13
2022-10-30T11:21:34.342Z,969.12
2022-10-30T11:22:34.302Z,969.11
2022-10-30T11:23:34.267Z,969.11
2022-10-30T11:24:34.257Z,969.11
2022-10-30T11:25:34.198Z,969.09
2022-10-30T11:26:34.168Z,969.11
2022-10-30T11:27:34.129Z,969.11
2022-10-30T11:28:34.100Z,969.10
2022-10-30T11:29:34.064Z,969.12
2022-10-30T11:30:34.049Z,969.11
2022-10-30T11:31:33.990Z,969.09
2022-10-30T11:32:34.054Z,969.12
2022-10-30T11:33:33.919Z,969.12
2022-10-30T11:34:33.891Z,969.09
2022-10-30T11:35:33.937Z,969.12
2022-10-30T11:36:33.849Z,969.07
2022-10-30T11:37:33.788Z,969.10
2022-10-30T11:38:33.752Z,969.08
2022-10-30T11:39:33.716Z,969.08
2022-10-30T11:40:33.682Z,969.06
2022-10-30T11:41:33.643Z,969.00
2022-10-30T11:42:33.631Z,969.03
2022-10-30T11:43:33.578Z,969.02
2022-10-30T11:44:33.547Z,968.99
2022-10-30T11:45:33.517Z,968.97
2022-10-30T11:46:33.475Z,968.96
2022-10-30T11:48:33.447Z,968.98
2022-10-30T11:49:33.368Z,968.97
2022-10-30T11:50:33.347Z,968.98
2022-10-30T11:51:33.396Z,969.01
2022-10-30T11:52:33.291Z,969.01
2022-10-30T11:53:33.236Z,969.04
2022-10-30T11:54:33.313Z,968.98
2022-10-30T11:55:33.173Z,969.01
2022-10-30T11:56:33.133Z,968.97
2022-10-30T11:57:33.100Z,968.97
2022-10-30T11:58:33.077Z,968.98
2022-10-30T11:59:33.032Z,968.97
2022-10-30T12:00:33.025Z,968.96
2022-10-30T12:01:33.035Z,968.94
2022-10-30T12:02:33.006Z,968.93
2022-10-30T12:03:32.891Z,968.91
2022-10-30T12:04:32.872Z,968.90
2022-10-30T12:05:32.825Z,968.92
2022-10-30T12:06:32.818Z,968.91
2022-10-30T12:07:32.757Z,968.90
2022-10-30T12:08:32.724Z,968.92
2022-10-30T12:09:32.689Z,968.91
2022-10-30T12:10:32.652Z,968.89
2022-10-30T12:11:32.623Z,968.91
2022-10-30T12:12:32.624Z,968.90
2022-10-30T12:13:32.550Z,968.91
2022-10-30T12:14:32.516Z,968.89
2022-10-30T12:15:32.482Z,968.86
2022-10-30T12:16:32.456Z,968.84
2022-10-30T12:17:32.409Z,968.86
2022-10-30T12:18:32.570Z,968.82
2022-10-30T12:19:32.346Z,968.83
2022-10-30T12:20:32.309Z,968.83
2022-10-30T12:21:32.275Z,968.80
2022-10-30T12:22:32.243Z,968.79
2022-10-30T12:23:32.205Z,968.76
2022-10-30T12:24:32.205Z,968.77
2022-10-30T12:25:32.138Z,968.80
2022-10-30T12:26:32.101Z,968.74
2022-10-30T12:27:32.070Z,968.73
2022-10-30T12:28:32.038Z,968.73
2022-10-30T12:29:47.973Z,968.72
2022-10-30T12:30:31.996Z,968.70
2022-10-30T12:31:31.930Z,968.69
2022-10-30T12:32:34.535Z,968.66
2022-10-30T12:33:31.852Z,968.68
2022-10-30T12:34:31.826Z,968.65